sensor_id;sensor_type;location;lat;lon;timestamp;temperature;humidity
32173;DHT22;18679;45.190;5.722;2023-01-09T00:00:28;13.80;67.60
32173;DHT22;18679;45.190;5.722;2023-01-09T00:03:29;13.80;67.60
32173;DHT22;18679;45.190;5.722;2023-01-09T00:06:29;13.90;67.50
32173;DHT22;18679;45.190;5.722;2023-01-09T00:09:30;13.90;67.50
32173;DHT22;18679;45.190;5.722;2023-01-09T00:12:32;13.90;67.40
32173;DHT22;18679;45.190;5.722;2023-01-09T00:15:33;13.90;67.50
32173;DHT22;18679;45.190;5.722;2023-01-09T00:18:35;13.80;67.80
32173;DHT22;18679;45.190;5.722;2023-01-09T00:21:36;13.70;68.10
32173;DHT22;18679;45.190;5.722;2023-01-09T00:24:37;13.60;68.40
32173;DHT22;18679;45.190;5.722;2023-01-09T00:27:38;13.60;67.70
32173;DHT22;18679;45.190;5.722;2023-01-09T00:30:39;13.60;65.00
32173;DHT22;18679;45.190;5.722;2023-01-09T00:33:44;13.50;63.00
32173;DHT22;18679;45.190;5.722;2023-01-09T00:36:45;13.50;62.50
32173;DHT22;18679;45.190;5.722;2023-01-09T00:39:46;13.30;62.20
32173;DHT22;18679;45.190;5.722;2023-01-09T00:42:51;13.30;62.60
32173;DHT22;18679;45.190;5.722;2023-01-09T00:45:52;13.20;61.70
32173;DHT22;18679;45.190;5.722;2023-01-09T00:48:53;13.20;61.20
32173;DHT22;18679;45.190;5.722;2023-01-09T00:51:54;13.20;61.20
32173;DHT22;18679;45.190;5.722;2023-01-09T00:54:56;13.20;60.90
32173;DHT22;18679;45.190;5.722;2023-01-09T00:57:57;13.20;60.50
32173;DHT22;18679;45.190;5.722;2023-01-09T01:00:58;13.20;60.70
32173;DHT22;18679;45.190;5.722;2023-01-09T01:03:59;13.10;61.10
32173;DHT22;18679;45.190;5.722;2023-01-09T01:07:20;13.10;61.30
32173;DHT22;18679;45.190;5.722;2023-01-09T01:10:39;13.10;61.50
32173;DHT22;18679;45.190;5.722;2023-01-09T01:13:40;13.00;61.60
32173;DHT22;18679;45.190;5.722;2023-01-09T01:16:41;13.10;61.90
32173;DHT22;18679;45.190;5.722;2023-01-09T01:19:42;13.00;62.20
32173;DHT22;18679;45.190;5.722;2023-01-09T01:22:43;13.00;62.40
32173;DHT22;18679;45.190;5.722;2023-01-09T01:25:43;13.10;62.50
32173;DHT22;18679;45.190;5.722;2023-01-09T01:28:44;13.10;62.70
32173;DHT22;18679;45.190;5.722;2023-01-09T01:31:45;13.10;62.80
32173;DHT22;18679;45.190;5.722;2023-01-09T01:34:46;13.10;62.70
32173;DHT22;18679;45.190;5.722;2023-01-09T01:37:47;13.10;62.70
32173;DHT22;18679;45.190;5.722;2023-01-09T01:40:53;13.10;62.80
32173;DHT22;18679;45.190;5.722;2023-01-09T01:46:55;13.00;62.60
32173;DHT22;18679;45.190;5.722;2023-01-09T01:49:57;12.90;63.30
32173;DHT22;18679;45.190;5.722;2023-01-09T01:53:06;12.60;63.50
32173;DHT22;18679;45.190;5.722;2023-01-09T01:59:41;12.30;64.30
32173;DHT22;18679;45.190;5.722;2023-01-09T02:02:45;12.30;64.50
32173;DHT22;18679;45.190;5.722;2023-01-09T02:05:46;12.30;64.40
32173;DHT22;18679;45.190;5.722;2023-01-09T02:08:48;12.30;64.40
32173;DHT22;18679;45.190;5.722;2023-01-09T02:11:51;12.40;64.40
32173;DHT22;18679;45.190;5.722;2023-01-09T02:18:20;12.50;64.00
32173;DHT22;18679;45.190;5.722;2023-01-09T02:44:29;12.80;63.00
32173;DHT22;18679;45.190;5.722;2023-01-09T02:50:51;12.90;62.40
32173;DHT22;18679;45.190;5.722;2023-01-09T02:54:12;13.00;62.00
32173;DHT22;18679;45.190;5.722;2023-01-09T02:57:39;13.10;61.10
32173;DHT22;18679;45.190;5.722;2023-01-09T03:11:02;13.40;59.80
32173;DHT22;18679;45.190;5.722;2023-01-09T03:14:10;13.40;59.90
32173;DHT22;18679;45.190;5.722;2023-01-09T03:17:14;13.40;59.90
32173;DHT22;18679;45.190;5.722;2023-01-09T03:20:20;13.40;60.00
32173;DHT22;18679;45.190;5.722;2023-01-09T03:23:21;13.30;60.00
32173;DHT22;18679;45.190;5.722;2023-01-09T03:26:23;13.40;60.20
32173;DHT22;18679;45.190;5.722;2023-01-09T03:29:24;13.40;60.30
32173;DHT22;18679;45.190;5.722;2023-01-09T03:32:25;13.40;60.30
32173;DHT22;18679;45.190;5.722;2023-01-09T03:35:27;13.40;60.40
32173;DHT22;18679;45.190;5.722;2023-01-09T03:38:28;13.40;60.50
32173;DHT22;18679;45.190;5.722;2023-01-09T03:41:29;13.40;60.20
32173;DHT22;18679;45.190;5.722;2023-01-09T03:44:30;13.30;60.20
32173;DHT22;18679;45.190;5.722;2023-01-09T03:47:30;13.30;60.20
32173;DHT22;18679;45.190;5.722;2023-01-09T03:50:31;13.30;60.30
32173;DHT22;18679;45.190;5.722;2023-01-09T03:53:32;13.30;60.50
32173;DHT22;18679;45.190;5.722;2023-01-09T03:56:33;13.30;60.50
32173;DHT22;18679;45.190;5.722;2023-01-09T03:59:34;13.30;60.40
32173;DHT22;18679;45.190;5.722;2023-01-09T04:02:35;13.30;60.30
32173;DHT22;18679;45.190;5.722;2023-01-09T04:05:35;13.30;60.20
32173;DHT22;18679;45.190;5.722;2023-01-09T04:08:36;13.30;60.20
32173;DHT22;18679;45.190;5.722;2023-01-09T04:11:37;13.30;60.10
32173;DHT22;18679;45.190;5.722;2023-01-09T04:14:38;13.30;59.90
32173;DHT22;18679;45.190;5.722;2023-01-09T04:17:39;13.30;59.80
32173;DHT22;18679;45.190;5.722;2023-01-09T04:20:40;13.20;59.70
32173;DHT22;18679;45.190;5.722;2023-01-09T04:23:41;13.20;59.80
32173;DHT22;18679;45.190;5.722;2023-01-09T04:26:42;13.20;59.90
32173;DHT22;18679;45.190;5.722;2023-01-09T04:29:42;13.20;60.00
32173;DHT22;18679;45.190;5.722;2023-01-09T04:32:43;13.10;60.00
32173;DHT22;18679;45.190;5.722;2023-01-09T04:35:44;13.10;60.00
32173;DHT22;18679;45.190;5.722;2023-01-09T04:38:45;13.10;60.00
32173;DHT22;18679;45.190;5.722;2023-01-09T04:41:46;13.00;60.00
32173;DHT22;18679;45.190;5.722;2023-01-09T04:44:50;13.00;60.00
32173;DHT22;18679;45.190;5.722;2023-01-09T04:47:53;12.90;59.90
32173;DHT22;18679;45.190;5.722;2023-01-09T04:50:54;12.90;60.10
32173;DHT22;18679;45.190;5.722;2023-01-09T04:53:55;12.90;60.00
32173;DHT22;18679;45.190;5.722;2023-01-09T04:56:56;12.90;60.00
32173;DHT22;18679;45.190;5.722;2023-01-09T04:59:56;12.80;60.00
32173;DHT22;18679;45.190;5.722;2023-01-09T05:02:57;12.80;60.00
32173;DHT22;18679;45.190;5.722;2023-01-09T05:05:59;12.70;60.00
32173;DHT22;18679;45.190;5.722;2023-01-09T05:09:00;12.70;60.00
32173;DHT22;18679;45.190;5.722;2023-01-09T05:12:01;12.70;59.80
32173;DHT22;18679;45.190;5.722;2023-01-09T05:15:02;12.70;59.90
32173;DHT22;18679;45.190;5.722;2023-01-09T05:18:03;12.70;60.00
32173;DHT22;18679;45.190;5.722;2023-01-09T05:21:05;12.60;59.80
32173;DHT22;18679;45.190;5.722;2023-01-09T05:24:06;12.60;59.80
32173;DHT22;18679;45.190;5.722;2023-01-09T05:27:07;12.70;59.80
32173;DHT22;18679;45.190;5.722;2023-01-09T05:30:09;12.70;59.50
32173;DHT22;18679;45.190;5.722;2023-01-09T05:33:10;12.80;59.20
32173;DHT22;18679;45.190;5.722;2023-01-09T05:36:10;12.80;58.70
32173;DHT22;18679;45.190;5.722;2023-01-09T05:39:11;12.90;58.30
32173;DHT22;18679;45.190;5.722;2023-01-09T05:42:12;13.00;57.70
32173;DHT22;18679;45.190;5.722;2023-01-09T05:45:13;13.00;57.10
32173;DHT22;18679;45.190;5.722;2023-01-09T05:48:14;13.10;57.00
32173;DHT22;18679;45.190;5.722;2023-01-09T05:51:15;13.10;56.90
32173;DHT22;18679;45.190;5.722;2023-01-09T05:54:16;13.10;56.70
32173;DHT22;18679;45.190;5.722;2023-01-09T05:57:17;13.10;56.70
32173;DHT22;18679;45.190;5.722;2023-01-09T06:00:18;13.10;56.40
32173;DHT22;18679;45.190;5.722;2023-01-09T06:03:19;13.20;56.20
32173;DHT22;18679;45.190;5.722;2023-01-09T06:06:20;13.10;56.30
32173;DHT22;18679;45.190;5.722;2023-01-09T06:09:22;13.10;56.70
32173;DHT22;18679;45.190;5.722;2023-01-09T06:12:23;12.90;56.90
32173;DHT22;18679;45.190;5.722;2023-01-09T06:15:24;12.90;57.30
32173;DHT22;18679;45.190;5.722;2023-01-09T06:18:25;12.80;57.50
32173;DHT22;18679;45.190;5.722;2023-01-09T06:21:26;12.80;57.70
32173;DHT22;18679;45.190;5.722;2023-01-09T06:24:29;12.70;57.90
32173;DHT22;18679;45.190;5.722;2023-01-09T06:27:29;12.70;58.10
32173;DHT22;18679;45.190;5.722;2023-01-09T06:30:31;12.60;58.20
32173;DHT22;18679;45.190;5.722;2023-01-09T06:33:33;12.60;58.60
32173;DHT22;18679;45.190;5.722;2023-01-09T06:36:34;12.50;58.70
32173;DHT22;18679;45.190;5.722;2023-01-09T06:39:35;12.40;58.80
32173;DHT22;18679;45.190;5.722;2023-01-09T06:42:36;12.40;58.90
32173;DHT22;18679;45.190;5.722;2023-01-09T19:16:09;11.40;54.20
32173;DHT22;18679;45.190;5.722;2023-01-09T19:19:10;11.30;54.70
32173;DHT22;18679;45.190;5.722;2023-01-09T19:22:11;11.30;55.10
32173;DHT22;18679;45.190;5.722;2023-01-09T19:25:14;11.20;55.40
32173;DHT22;18679;45.190;5.722;2023-01-09T19:28:15;11.20;55.60
32173;DHT22;18679;45.190;5.722;2023-01-09T19:31:17;11.10;55.80
32173;DHT22;18679;45.190;5.722;2023-01-09T19:34:18;11.10;56.00
32173;DHT22;18679;45.190;5.722;2023-01-09T19:37:19;11.10;56.20
32173;DHT22;18679;45.190;5.722;2023-01-09T19:40:20;11.00;56.30
32173;DHT22;18679;45.190;5.722;2023-01-09T19:43:21;11.00;56.40
32173;DHT22;18679;45.190;5.722;2023-01-09T19:46:28;11.10;56.50
32173;DHT22;18679;45.190;5.722;2023-01-09T19:49:30;11.10;56.40
32173;DHT22;18679;45.190;5.722;2023-01-09T19:52:31;11.10;56.40
32173;DHT22;18679;45.190;5.722;2023-01-09T19:55:32;11.10;56.10
32173;DHT22;18679;45.190;5.722;2023-01-09T19:58:33;11.20;55.80
32173;DHT22;18679;45.190;5.722;2023-01-09T20:01:36;11.30;55.40
32173;DHT22;18679;45.190;5.722;2023-01-09T20:04:38;11.40;55.30
32173;DHT22;18679;45.190;5.722;2023-01-09T20:07:39;11.40;55.20
32173;DHT22;18679;45.190;5.722;2023-01-09T20:10:41;11.40;55.30
32173;DHT22;18679;45.190;5.722;2023-01-09T20:13:43;11.30;55.50
32173;DHT22;18679;45.190;5.722;2023-01-09T20:16:44;11.30;55.70
32173;DHT22;18679;45.190;5.722;2023-01-09T20:19:47;11.20;55.80
32173;DHT22;18679;45.190;5.722;2023-01-09T20:22:48;11.10;55.90
32173;DHT22;18679;45.190;5.722;2023-01-09T20:25:50;11.10;56.00
32173;DHT22;18679;45.190;5.722;2023-01-09T20:28:51;11.00;56.20
32173;DHT22;18679;45.190;5.722;2023-01-09T20:31:53;10.90;56.50
32173;DHT22;18679;45.190;5.722;2023-01-09T20:34:53;10.80;56.70
32173;DHT22;18679;45.190;5.722;2023-01-09T20:37:54;10.80;57.00
32173;DHT22;18679;45.190;5.722;2023-01-09T20:40:55;10.80;57.30
32173;DHT22;18679;45.190;5.722;2023-01-09T20:44:01;10.80;57.40
32173;DHT22;18679;45.190;5.722;2023-01-09T20:47:02;10.80;57.60
32173;DHT22;18679;45.190;5.722;2023-01-09T20:50:03;10.80;57.70
32173;DHT22;18679;45.190;5.722;2023-01-09T20:53:05;10.80;57.90
32173;DHT22;18679;45.190;5.722;2023-01-09T20:56:06;10.70;58.10
32173;DHT22;18679;45.190;5.722;2023-01-09T20:59:17;10.70;58.50
32173;DHT22;18679;45.190;5.722;2023-01-09T21:02:19;10.60;58.80
32173;DHT22;18679;45.190;5.722;2023-01-09T21:05:21;10.60;58.90
32173;DHT22;18679;45.190;5.722;2023-01-09T21:08:22;10.60;59.20
32173;DHT22;18679;45.190;5.722;2023-01-09T21:11:23;10.60;59.10
32173;DHT22;18679;45.190;5.722;2023-01-09T21:14:24;10.60;59.20
32173;DHT22;18679;45.190;5.722;2023-01-09T21:17:25;10.60;59.30
32173;DHT22;18679;45.190;5.722;2023-01-09T21:20:27;10.50;59.40
32173;DHT22;18679;45.190;5.722;2023-01-09T21:23:28;10.60;59.50
32173;DHT22;18679;45.190;5.722;2023-01-09T21:26:29;10.60;59.60
32173;DHT22;18679;45.190;5.722;2023-01-09T21:29:30;10.60;59.60
32173;DHT22;18679;45.190;5.722;2023-01-09T21:32:31;10.60;59.60
32173;DHT22;18679;45.190;5.722;2023-01-09T21:35:34;10.60;59.50
32173;DHT22;18679;45.190;5.722;2023-01-09T21:38:36;10.60;59.50
32173;DHT22;18679;45.190;5.722;2023-01-09T21:41:37;10.60;59.40
32173;DHT22;18679;45.190;5.722;2023-01-09T21:44:56;10.70;59.40
32173;DHT22;18679;45.190;5.722;2023-01-09T21:48:15;10.70;59.40
32173;DHT22;18679;45.190;5.722;2023-01-09T21:51:16;10.70;59.40
32173;DHT22;18679;45.190;5.722;2023-01-09T21:54:17;10.70;59.30
32173;DHT22;18679;45.190;5.722;2023-01-09T21:57:18;10.70;59.50
32173;DHT22;18679;45.190;5.722;2023-01-09T22:00:19;10.70;59.60
32173;DHT22;18679;45.190;5.722;2023-01-09T22:03:20;10.60;59.60
32173;DHT22;18679;45.190;5.722;2023-01-09T22:06:22;10.70;59.70
32173;DHT22;18679;45.190;5.722;2023-01-09T22:09:23;10.60;59.70
32173;DHT22;18679;45.190;5.722;2023-01-09T22:12:24;10.60;59.50
32173;DHT22;18679;45.190;5.722;2023-01-09T22:15:25;10.60;59.40
32173;DHT22;18679;45.190;5.722;2023-01-09T22:18:26;10.70;59.40
32173;DHT22;18679;45.190;5.722;2023-01-09T22:21:27;10.60;59.30
32173;DHT22;18679;45.190;5.722;2023-01-09T22:24:28;10.60;59.30
32173;DHT22;18679;45.190;5.722;2023-01-09T22:27:29;10.60;59.30
32173;DHT22;18679;45.190;5.722;2023-01-09T22:30:30;10.60;59.00
32173;DHT22;18679;45.190;5.722;2023-01-09T22:33:31;10.60;58.90
32173;DHT22;18679;45.190;5.722;2023-01-09T22:36:33;10.50;58.90
32173;DHT22;18679;45.190;5.722;2023-01-09T22:39:34;10.50;59.30
32173;DHT22;18679;45.190;5.722;2023-01-09T22:42:35;10.40;59.50
32173;DHT22;18679;45.190;5.722;2023-01-09T22:45:36;10.40;59.90
32173;DHT22;18679;45.190;5.722;2023-01-09T22:48:37;10.30;60.20
32173;DHT22;18679;45.190;5.722;2023-01-09T22:51:39;10.20;60.90
32173;DHT22;18679;45.190;5.722;2023-01-09T22:54:40;10.20;62.20
32173;DHT22;18679;45.190;5.722;2023-01-09T22:57:41;10.10;61.80
32173;DHT22;18679;45.190;5.722;2023-01-09T23:00:41;10.10;62.10
32173;DHT22;18679;45.190;5.722;2023-01-09T23:03:42;10.10;62.10
32173;DHT22;18679;45.190;5.722;2023-01-09T23:06:43;10.10;61.80
32173;DHT22;18679;45.190;5.722;2023-01-09T23:09:44;10.10;61.70
32173;DHT22;18679;45.190;5.722;2023-01-09T23:12:45;10.10;61.50
32173;DHT22;18679;45.190;5.722;2023-01-09T23:15:48;10.10;61.20
32173;DHT22;18679;45.190;5.722;2023-01-09T23:18:49;10.10;60.90
32173;DHT22;18679;45.190;5.722;2023-01-09T23:21:49;10.20;60.70
32173;DHT22;18679;45.190;5.722;2023-01-09T23:24:50;10.20;60.40
32173;DHT22;18679;45.190;5.722;2023-01-09T23:27:51;10.30;60.40
32173;DHT22;18679;45.190;5.722;2023-01-09T23:30:53;10.30;59.90
32173;DHT22;18679;45.190;5.722;2023-01-09T23:33:54;10.40;59.70
32173;DHT22;18679;45.190;5.722;2023-01-09T23:36:55;10.40;59.40
32173;DHT22;18679;45.190;5.722;2023-01-09T23:39:56;10.40;59.20
32173;DHT22;18679;45.190;5.722;2023-01-09T23:42:57;10.50;59.10
32173;DHT22;18679;45.190;5.722;2023-01-09T23:46:11;10.50;59.00
32173;DHT22;18679;45.190;5.722;2023-01-09T23:49:12;10.50;59.00
32173;DHT22;18679;45.190;5.722;2023-01-09T23:52:12;10.50;58.90
32173;DHT22;18679;45.190;5.722;2023-01-09T23:55:13;10.60;58.90
32173;DHT22;18679;45.190;5.722;2023-01-09T23:58:14;10.60;59.00
